createdAt,value
2023-01-26T00:01:50.650Z,15.63
2023-01-26T00:04:16.978Z,15.55
2023-01-26T00:06:43.366Z,15.45
2023-01-26T00:09:09.640Z,15.37
2023-01-26T00:11:36.137Z,15.28
2023-01-26T00:14:02.782Z,15.20
2023-01-26T00:16:29.047Z,15.13
2023-01-26T00:18:55.255Z,15.05
2023-01-26T00:21:21.789Z,14.96
2023-01-26T00:23:48.331Z,14.87
2023-01-26T00:26:14.787Z,14.81
2023-01-26T00:28:44.083Z,14.74
2023-01-26T00:31:10.953Z,14.66
2023-01-26T00:33:37.247Z,14.58
2023-01-26T00:36:03.648Z,14.52
2023-01-26T00:38:30.161Z,14.44
2023-01-26T00:40:57.105Z,14.36
2023-01-26T00:43:23.376Z,14.30
2023-01-26T00:45:49.713Z,14.23
2023-01-26T00:48:16.117Z,14.18
2023-01-26T00:50:43.008Z,14.12
2023-01-26T00:53:10.506Z,14.06
2023-01-26T00:55:36.761Z,14.00
2023-01-26T00:58:02.983Z,13.93
2023-01-26T01:00:29.160Z,13.87
2023-01-26T01:02:55.622Z,13.82
2023-01-26T01:05:22.154Z,13.75
2023-01-26T01:07:48.376Z,13.69
2023-01-26T01:10:14.569Z,13.63
2023-01-26T01:12:42.060Z,13.57
2023-01-26T01:15:08.751Z,13.52
2023-01-26T01:17:35.318Z,13.49
2023-01-26T01:20:01.561Z,13.43
2023-01-26T01:22:27.770Z,13.38
2023-01-26T01:24:54.697Z,13.34
2023-01-26T01:27:20.891Z,13.28
2023-01-26T01:29:47.058Z,13.23
2023-01-26T01:32:13.260Z,13.17
2023-01-26T01:34:39.500Z,13.12
2023-01-26T01:37:06.630Z,13.07
2023-01-26T01:39:32.866Z,13.02
2023-01-26T01:41:59.058Z,12.98
2023-01-26T01:44:25.275Z,12.92
2023-01-26T01:46:52.730Z,12.89
2023-01-26T01:49:19.039Z,12.85
2023-01-26T01:51:45.325Z,12.80
2023-01-26T01:54:11.623Z,12.75
2023-01-26T01:56:37.795Z,12.71
2023-01-26T01:59:04.005Z,12.68
2023-01-26T02:01:30.186Z,12.64
2023-01-26T02:03:56.417Z,12.60
2023-01-26T02:06:22.621Z,12.56
2023-01-26T02:08:48.983Z,12.52
2023-01-26T02:11:15.159Z,12.48
2023-01-26T02:13:41.688Z,12.42
2023-01-26T02:16:08.814Z,12.38
2023-01-26T02:18:35.050Z,12.35
2023-01-26T02:21:01.193Z,12.31
2023-01-26T02:23:27.982Z,12.27
2023-01-26T02:25:54.164Z,12.24
2023-01-26T02:28:20.377Z,12.19
2023-01-26T02:30:46.649Z,12.15
2023-01-26T02:33:14.149Z,12.13
2023-01-26T02:35:40.454Z,12.09
2023-01-26T02:38:06.813Z,12.07
2023-01-26T02:40:34.032Z,12.03
2023-01-26T02:43:00.436Z,11.99
2023-01-26T02:45:26.596Z,11.95
2023-01-26T02:47:53.486Z,11.91
2023-01-26T02:50:20.081Z,11.87
2023-01-26T02:52:47.000Z,11.84
2023-01-26T02:55:13.245Z,11.79
2023-01-26T02:57:39.406Z,11.75
2023-01-26T03:00:06.318Z,11.72
2023-01-26T03:02:32.528Z,11.69
2023-01-26T03:04:59.078Z,11.65
2023-01-26T03:07:25.471Z,11.61
2023-01-26T03:09:51.933Z,11.59
2023-01-26T03:12:18.107Z,11.55
2023-01-26T03:14:44.280Z,11.52
2023-01-26T03:17:10.856Z,11.48
2023-01-26T03:19:37.487Z,11.44
2023-01-26T03:22:03.718Z,11.41
2023-01-26T03:24:30.875Z,11.38
2023-01-26T03:26:57.562Z,11.35
2023-01-26T03:29:26.733Z,11.33
2023-01-26T03:31:53.452Z,11.30
2023-01-26T03:34:19.638Z,11.29
2023-01-26T03:36:46.685Z,11.28
2023-01-26T03:39:12.944Z,11.27
2023-01-26T03:41:39.151Z,11.25
2023-01-26T03:44:05.352Z,11.22
2023-01-26T03:46:32.727Z,11.20
2023-01-26T03:48:59.445Z,11.15
2023-01-26T03:51:25.703Z,11.11
2023-01-26T03:53:52.356Z,11.09
2023-01-26T03:56:18.837Z,11.05
2023-01-26T03:58:45.030Z,11.02
2023-01-26T04:01:11.328Z,11.00
2023-01-26T04:03:37.603Z,10.97
2023-01-26T04:06:16.150Z,10.94
2023-01-26T04:08:43.490Z,10.90
2023-01-26T04:11:09.767Z,10.87
2023-01-26T04:13:36.104Z,10.85
2023-01-26T04:16:02.348Z,10.81
2023-01-26T04:18:28.521Z,10.78
2023-01-26T04:20:54.682Z,10.75
2023-01-26T04:23:20.925Z,10.72
2023-01-26T04:25:47.863Z,10.69
2023-01-26T04:28:14.038Z,10.66
2023-01-26T04:30:40.732Z,10.64
2023-01-26T04:33:06.923Z,10.61
2023-01-26T04:35:33.279Z,10.58
2023-01-26T04:37:59.471Z,10.57
2023-01-26T04:40:25.585Z,10.54
2023-01-26T04:42:52.406Z,10.55
2023-01-26T04:45:19.414Z,10.53
2023-01-26T04:47:45.659Z,10.51
2023-01-26T04:50:12.438Z,10.49
2023-01-26T04:52:38.855Z,10.47
2023-01-26T04:55:07.385Z,10.46
2023-01-26T04:57:33.985Z,10.43
2023-01-26T05:00:02.470Z,10.42
2023-01-26T05:02:28.986Z,10.39
2023-01-26T05:04:55.786Z,10.37
2023-01-26T05:07:24.986Z,10.35
2023-01-26T05:09:51.209Z,10.34
2023-01-26T05:12:18.072Z,10.31
2023-01-26T05:14:44.414Z,10.28
2023-01-26T05:17:11.023Z,10.28
2023-01-26T05:19:37.408Z,10.23
2023-01-26T05:22:03.676Z,10.22
2023-01-26T05:24:33.086Z,10.20
2023-01-26T05:26:59.996Z,10.16
2023-01-26T05:29:26.205Z,10.14
2023-01-26T05:31:53.184Z,10.12
2023-01-26T05:34:19.401Z,10.10
2023-01-26T05:36:46.225Z,10.08
2023-01-26T05:39:12.471Z,10.06
2023-01-26T05:41:38.670Z,10.03
2023-01-26T05:44:05.488Z,10.01
2023-01-26T05:46:31.657Z,9.99
2023-01-26T05:48:57.953Z,9.97
2023-01-26T05:51:24.497Z,9.96
2023-01-26T05:53:51.187Z,9.95
2023-01-26T05:56:17.525Z,9.92
2023-01-26T05:58:44.085Z,9.92
2023-01-26T06:01:10.759Z,9.90
2023-01-26T06:03:37.474Z,9.87
2023-01-26T06:06:03.711Z,9.85
2023-01-26T06:08:29.975Z,9.82
2023-01-26T06:10:56.328Z,9.82
2023-01-26T06:13:22.522Z,9.81
2023-01-26T06:15:48.752Z,9.78
2023-01-26T06:18:14.949Z,9.76
2023-01-26T06:20:44.021Z,9.74
2023-01-26T06:23:10.444Z,9.73
2023-01-26T06:25:37.058Z,9.71
2023-01-26T06:28:03.385Z,9.69
2023-01-26T06:30:30.267Z,9.68
2023-01-26T06:32:58.864Z,9.68
2023-01-26T06:35:26.292Z,9.66
2023-01-26T06:37:52.500Z,9.64
2023-01-26T06:40:18.692Z,9.62
2023-01-26T06:42:50.236Z,9.60
2023-01-26T06:45:16.713Z,9.58
2023-01-26T06:47:43.551Z,9.57
2023-01-26T06:50:10.198Z,9.55
2023-01-26T06:52:37.036Z,9.53
2023-01-26T06:55:03.297Z,9.51
2023-01-26T06:57:29.643Z,9.49
2023-01-26T06:59:55.857Z,9.47
2023-01-26T07:02:22.146Z,9.47
2023-01-26T07:04:48.460Z,9.45
2023-01-26T07:07:14.700Z,9.49
2023-01-26T07:09:40.923Z,9.93
2023-01-26T07:12:07.146Z,10.50
2023-01-26T07:14:33.355Z,11.00
2023-01-26T07:16:59.539Z,11.41
2023-01-26T07:19:25.996Z,11.78
2023-01-26T07:21:52.783Z,12.13
2023-01-26T07:24:19.023Z,12.42
2023-01-26T07:26:45.268Z,12.75
2023-01-26T07:29:11.597Z,13.02
2023-01-26T07:31:38.587Z,13.30
2023-01-26T07:34:05.480Z,13.56
2023-01-26T07:36:31.750Z,13.79
2023-01-26T07:38:57.928Z,13.98
2023-01-26T07:41:24.197Z,14.17
2023-01-26T07:43:50.532Z,14.35
2023-01-26T07:46:16.763Z,14.52
2023-01-26T07:48:43.502Z,14.68
2023-01-26T07:51:10.123Z,14.82
2023-01-26T07:53:36.546Z,14.95
2023-01-26T07:56:02.794Z,15.04
2023-01-26T07:58:29.150Z,15.12
2023-01-26T08:00:55.330Z,15.21
2023-01-26T08:03:21.528Z,15.31
2023-01-26T08:05:47.892Z,15.43
2023-01-26T08:08:14.329Z,15.57
2023-01-26T08:10:41.418Z,15.69
2023-01-26T08:13:07.701Z,15.78
2023-01-26T08:15:37.031Z,15.91
2023-01-26T08:18:03.210Z,16.02
2023-01-26T08:20:29.380Z,16.10
2023-01-26T08:22:56.757Z,16.19
2023-01-26T08:25:23.752Z,16.29
2023-01-26T08:27:49.979Z,16.39
2023-01-26T08:30:16.170Z,16.49
2023-01-26T08:32:43.796Z,16.59
2023-01-26T08:35:10.024Z,16.66
2023-01-26T08:37:36.234Z,16.78
2023-01-26T08:40:03.102Z,16.86
2023-01-26T08:42:29.435Z,16.95
2023-01-26T08:44:55.635Z,17.04
2023-01-26T08:47:22.734Z,17.13
2023-01-26T08:49:48.898Z,17.20
2023-01-26T08:52:15.579Z,17.25
2023-01-26T08:54:41.768Z,17.28
2023-01-26T08:57:08.670Z,17.29
2023-01-26T08:59:38.627Z,17.25
2023-01-26T09:02:05.353Z,17.26
2023-01-26T09:04:31.616Z,17.27
2023-01-26T09:06:57.822Z,17.34
2023-01-26T09:09:24.851Z,17.39
2023-01-26T09:11:51.051Z,17.38
2023-01-26T09:14:17.239Z,17.37
2023-01-26T09:16:43.717Z,17.38
2023-01-26T09:19:10.071Z,17.39
2023-01-26T09:21:37.286Z,17.37
2023-01-26T09:24:03.599Z,17.34
2023-01-26T09:26:29.824Z,17.31
2023-01-26T09:28:55.998Z,17.29
2023-01-26T09:31:22.261Z,17.28
2023-01-26T09:33:49.465Z,17.25
2023-01-26T09:36:16.148Z,17.24
2023-01-26T09:38:42.358Z,17.21
2023-01-26T09:41:08.551Z,17.18
2023-01-26T09:43:35.484Z,17.17
2023-01-26T09:46:01.684Z,17.16
2023-01-26T09:48:28.454Z,17.14
2023-01-26T09:50:55.122Z,17.11
2023-01-26T09:53:21.336Z,17.08
2023-01-26T09:55:47.527Z,17.06
2023-01-26T09:58:13.714Z,17.05
2023-01-26T10:00:40.056Z,17.03
2023-01-26T10:03:06.459Z,17.04
2023-01-26T10:05:32.652Z,17.08
2023-01-26T10:07:59.041Z,17.14
2023-01-26T10:10:25.279Z,17.25
2023-01-26T10:12:54.817Z,17.35
2023-01-26T10:15:21.109Z,17.47
2023-01-26T10:17:47.276Z,17.57
2023-01-26T10:20:13.569Z,17.69
2023-01-26T10:22:40.104Z,17.82
2023-01-26T10:25:06.319Z,17.96
2023-01-26T10:27:32.627Z,18.13
2023-01-26T10:29:58.815Z,18.25
2023-01-26T10:32:25.196Z,18.32
2023-01-26T10:34:51.386Z,18.34
2023-01-26T10:37:17.782Z,18.34
2023-01-26T10:39:44.140Z,18.34
2023-01-26T10:42:10.448Z,18.32
2023-01-26T10:44:37.365Z,18.32
2023-01-26T10:47:04.401Z,18.32
2023-01-26T10:49:30.649Z,18.29
2023-01-26T10:51:56.997Z,18.27
2023-01-26T10:54:23.295Z,18.21
2023-01-26T10:56:49.628Z,18.19
2023-01-26T10:59:15.849Z,18.18
2023-01-26T11:01:42.408Z,18.19
2023-01-26T11:04:08.692Z,18.17
2023-01-26T11:06:35.051Z,18.13
2023-01-26T11:09:01.248Z,18.10
2023-01-26T11:11:28.455Z,18.08
2023-01-26T11:13:54.707Z,18.06
2023-01-26T11:16:21.047Z,18.02
2023-01-26T11:18:47.268Z,18.00
2023-01-26T11:21:13.491Z,17.98
2023-01-26T11:23:39.720Z,17.99
2023-01-26T11:26:06.441Z,17.97
2023-01-26T11:28:32.691Z,17.95
2023-01-26T11:30:58.975Z,17.95
2023-01-26T11:33:25.420Z,17.97
2023-01-26T11:35:52.256Z,17.99
2023-01-26T11:38:18.452Z,18.02
2023-01-26T11:40:45.530Z,18.03
2023-01-26T11:43:11.759Z,18.05
2023-01-26T11:45:38.162Z,18.06
2023-01-26T11:48:04.383Z,18.09
2023-01-26T11:50:31.649Z,18.09
2023-01-26T11:52:57.896Z,18.09
2023-01-26T11:55:24.099Z,18.11
2023-01-26T11:57:50.387Z,18.11
2023-01-26T12:00:29.034Z,18.09
2023-01-26T12:02:56.924Z,18.09
2023-01-26T12:05:23.184Z,18.08
2023-01-26T12:07:49.403Z,18.06
2023-01-26T12:10:16.729Z,18.04
2023-01-26T12:12:43.776Z,18.02
2023-01-26T12:15:11.243Z,17.98
2023-01-26T12:17:37.829Z,18.01
2023-01-26T12:20:04.191Z,18.11
2023-01-26T12:22:32.093Z,18.26
2023-01-26T12:25:17.964Z,18.40
2023-01-26T12:27:45.671Z,18.50
2023-01-26T12:30:11.956Z,18.64
2023-01-26T12:32:38.663Z,18.75
2023-01-26T12:35:04.882Z,18.82
2023-01-26T12:37:31.536Z,18.87
2023-01-26T12:39:57.937Z,18.92
2023-01-26T12:42:24.157Z,18.94
2023-01-26T12:44:50.364Z,18.97
2023-01-26T12:47:16.552Z,18.99
2023-01-26T12:49:43.352Z,18.89
2023-01-26T12:52:10.293Z,18.96
2023-01-26T12:54:36.731Z,18.97
2023-01-26T12:57:03.467Z,18.96
2023-01-26T12:59:48.504Z,18.90
2023-01-26T13:02:16.223Z,18.83
2023-01-26T13:04:43.032Z,18.78
2023-01-26T13:07:10.169Z,18.78
2023-01-26T13:09:36.514Z,18.76
2023-01-26T13:12:02.761Z,18.72
2023-01-26T13:14:28.969Z,18.68
2023-01-26T13:16:55.831Z,18.67
2023-01-26T13:19:22.076Z,18.66
2023-01-26T13:21:48.518Z,18.65
2023-01-26T13:24:14.902Z,18.62
2023-01-26T13:26:41.252Z,18.61
2023-01-26T13:29:07.460Z,18.59
2023-01-26T13:31:34.087Z,18.56
2023-01-26T13:34:00.406Z,18.55
2023-01-26T13:36:26.611Z,18.53
2023-01-26T13:38:52.859Z,18.52
2023-01-26T13:41:19.245Z,18.49
2023-01-26T13:43:45.469Z,18.48
2023-01-26T13:46:11.848Z,18.45
2023-01-26T13:48:38.817Z,18.43
2023-01-26T13:51:05.120Z,18.42
2023-01-26T13:53:31.507Z,18.40
2023-01-26T13:55:58.439Z,18.39
2023-01-26T13:58:27.230Z,18.35
2023-01-26T14:00:53.487Z,18.34
2023-01-26T14:03:19.684Z,18.30
2023-01-26T14:05:45.865Z,18.27
2023-01-26T14:08:12.031Z,18.25
2023-01-26T14:10:38.492Z,18.22
2023-01-26T14:13:04.996Z,18.20
2023-01-26T14:15:32.100Z,18.16
2023-01-26T14:17:58.330Z,18.14
2023-01-26T14:20:24.604Z,18.12
2023-01-26T14:22:50.791Z,18.09
2023-01-26T14:25:17.023Z,18.06
2023-01-26T14:27:43.305Z,18.03
2023-01-26T14:30:09.876Z,18.01
2023-01-26T14:32:36.199Z,17.97
2023-01-26T14:35:02.379Z,17.96
2023-01-26T14:37:28.649Z,17.94
2023-01-26T14:39:55.108Z,17.95
2023-01-26T14:42:21.675Z,17.92
2023-01-26T14:44:47.974Z,17.92
2023-01-26T14:47:14.169Z,18.02
2023-01-26T14:49:40.428Z,18.12
2023-01-26T14:52:06.629Z,18.25
2023-01-26T14:54:33.332Z,18.40
2023-01-26T14:57:00.354Z,18.54
2023-01-26T14:59:28.033Z,18.69
2023-01-26T15:01:55.988Z,18.79
2023-01-26T15:04:22.359Z,18.85
2023-01-26T15:06:48.581Z,18.90
2023-01-26T15:09:14.801Z,18.92
2023-01-26T15:11:41.138Z,18.94
2023-01-26T15:14:07.407Z,18.96
2023-01-26T15:16:36.765Z,18.96
2023-01-26T15:19:03.202Z,18.93
2023-01-26T15:21:29.693Z,18.87
2023-01-26T15:23:56.611Z,18.82
2023-01-26T15:26:23.821Z,18.79
2023-01-26T15:28:51.023Z,18.77
2023-01-26T15:31:17.933Z,18.74
2023-01-26T15:33:44.254Z,18.72
2023-01-26T15:36:10.835Z,18.67
2023-01-26T15:38:37.128Z,18.61
2023-01-26T15:41:03.374Z,18.56
2023-01-26T15:43:30.417Z,18.51
2023-01-26T15:45:56.831Z,18.47
2023-01-26T15:48:23.564Z,18.42
2023-01-26T15:50:49.792Z,18.39
2023-01-26T15:53:16.573Z,18.34
2023-01-26T15:55:42.817Z,18.30
2023-01-26T15:58:09.139Z,18.25
2023-01-26T16:00:35.412Z,18.21
2023-01-26T16:03:03.185Z,18.18
2023-01-26T16:05:29.421Z,18.14
2023-01-26T16:07:55.807Z,18.11
2023-01-26T16:10:23.079Z,18.07
2023-01-26T16:12:49.257Z,18.03
2023-01-26T16:15:15.558Z,18.01
2023-01-26T16:17:41.781Z,17.98
2023-01-26T16:20:08.018Z,17.96
2023-01-26T16:22:34.353Z,17.93
2023-01-26T16:25:00.928Z,17.82
2023-01-26T16:27:27.121Z,17.93
2023-01-26T16:29:53.721Z,17.92
2023-01-26T16:32:20.309Z,17.93
2023-01-26T16:34:47.050Z,17.93
2023-01-26T16:37:13.628Z,17.93
2023-01-26T16:39:40.103Z,17.94
2023-01-26T16:42:09.379Z,17.95
2023-01-26T16:44:35.962Z,17.94
2023-01-26T16:47:02.236Z,17.94
2023-01-26T16:49:28.584Z,17.95
2023-01-26T16:51:57.978Z,17.95
2023-01-26T16:54:24.415Z,17.94
2023-01-26T16:56:50.701Z,17.93
2023-01-26T16:59:17.931Z,17.92
2023-01-26T17:01:44.179Z,17.92
2023-01-26T17:04:10.464Z,17.92
2023-01-26T17:06:37.214Z,17.88
2023-01-26T17:09:03.397Z,17.87
2023-01-26T17:11:29.773Z,17.85
2023-01-26T17:13:56.362Z,17.83
2023-01-26T17:16:22.641Z,17.84
2023-01-26T17:18:48.848Z,17.81
2023-01-26T17:21:15.084Z,17.81
2023-01-26T17:23:41.622Z,17.79
2023-01-26T17:26:07.946Z,17.79
2023-01-26T17:28:34.175Z,17.85
2023-01-26T17:31:01.478Z,17.94
2023-01-26T17:33:31.451Z,18.04
2023-01-26T17:35:58.254Z,18.11
2023-01-26T17:38:24.445Z,18.21
2023-01-26T17:40:50.770Z,18.26
2023-01-26T17:43:17.046Z,18.32
2023-01-26T17:45:43.299Z,18.33
2023-01-26T17:48:09.506Z,18.33
2023-01-26T17:50:36.447Z,18.36
2023-01-26T17:53:03.129Z,18.39
2023-01-26T17:55:29.530Z,18.41
2023-01-26T17:57:56.360Z,18.39
2023-01-26T18:00:22.693Z,18.36
2023-01-26T18:02:48.887Z,18.35
2023-01-26T18:05:15.084Z,18.37
2023-01-26T18:07:41.491Z,18.32
2023-01-26T18:10:07.789Z,18.31
2023-01-26T18:12:34.381Z,18.37
2023-01-26T18:15:00.676Z,18.46
2023-01-26T18:17:26.920Z,18.57
2023-01-26T18:19:53.156Z,18.70
2023-01-26T18:22:20.102Z,18.80
2023-01-26T18:24:46.407Z,18.89
2023-01-26T18:27:12.677Z,18.99
2023-01-26T18:29:39.037Z,19.09
2023-01-26T18:32:05.811Z,19.17
2023-01-26T18:34:32.600Z,19.25
2023-01-26T18:36:58.832Z,19.34
2023-01-26T18:39:25.863Z,19.41
2023-01-26T18:41:52.167Z,19.48
2023-01-26T18:44:18.449Z,19.54
2023-01-26T18:46:44.737Z,19.64
2023-01-26T18:49:10.966Z,19.69
2023-01-26T18:51:37.179Z,19.72
2023-01-26T18:54:03.614Z,19.74
2023-01-26T18:56:30.551Z,19.74
2023-01-26T18:58:56.754Z,19.73
2023-01-26T19:01:23.018Z,19.69
2023-01-26T19:03:49.735Z,19.66
2023-01-26T19:06:15.914Z,19.60
2023-01-26T19:08:42.749Z,19.54
2023-01-26T19:11:09.190Z,19.48
2023-01-26T19:13:37.596Z,19.41
2023-01-26T19:16:03.814Z,19.33
2023-01-26T19:18:30.853Z,19.27
2023-01-26T19:20:57.991Z,19.22
2023-01-26T19:23:24.385Z,19.19
2023-01-26T19:25:50.779Z,19.17
2023-01-26T19:28:17.004Z,19.15
2023-01-26T19:30:43.413Z,19.14
2023-01-26T19:33:09.943Z,19.11
2023-01-26T19:35:36.997Z,19.07
2023-01-26T19:38:03.216Z,19.05
2023-01-26T19:40:29.466Z,19.01
2023-01-26T19:42:55.715Z,18.98
2023-01-26T19:45:22.197Z,18.93
2023-01-26T19:47:48.988Z,18.89
2023-01-26T19:50:15.388Z,18.84
2023-01-26T19:52:41.595Z,18.83
2023-01-26T19:55:07.906Z,18.81
2023-01-26T19:57:34.258Z,18.86
2023-01-26T20:00:00.996Z,18.92
2023-01-26T20:02:27.316Z,18.98
2023-01-26T20:04:54.634Z,19.08
2023-01-26T20:07:20.831Z,19.19
2023-01-26T20:09:47.265Z,19.30
2023-01-26T20:12:14.097Z,19.40
2023-01-26T20:14:41.136Z,19.46
2023-01-26T20:17:07.338Z,19.50
2023-01-26T20:19:33.739Z,19.50
2023-01-26T20:22:00.868Z,19.51
2023-01-26T20:24:27.246Z,19.54
2023-01-26T20:26:53.591Z,19.58
2023-01-26T20:29:20.789Z,19.60
2023-01-26T20:31:47.380Z,19.60
2023-01-26T20:34:13.634Z,19.59
2023-01-26T20:36:39.821Z,19.59
2023-01-26T20:39:06.023Z,19.55
2023-01-26T20:41:32.699Z,19.51
2023-01-26T20:44:01.448Z,19.45
2023-01-26T20:46:28.275Z,19.42
2023-01-26T20:48:54.465Z,19.38
2023-01-26T20:51:20.679Z,19.36
2023-01-26T20:53:46.876Z,19.33
2023-01-26T20:56:13.393Z,19.31
2023-01-26T20:58:39.600Z,19.31
2023-01-26T21:01:06.000Z,19.28
2023-01-26T21:03:32.375Z,19.25
2023-01-26T21:05:58.679Z,19.21
2023-01-26T21:08:25.025Z,19.15
2023-01-26T21:10:51.202Z,19.13
2023-01-26T21:13:17.824Z,19.07
2023-01-26T21:15:44.781Z,19.03
2023-01-26T21:18:11.855Z,18.97
2023-01-26T21:20:38.104Z,18.94
2023-01-26T21:23:04.306Z,18.90
2023-01-26T21:25:30.507Z,18.86
2023-01-26T21:27:56.756Z,18.83
2023-01-26T21:30:23.496Z,18.80
2023-01-26T21:32:49.725Z,18.77
2023-01-26T21:35:16.089Z,18.75
2023-01-26T21:37:43.098Z,18.72
2023-01-26T21:40:09.427Z,18.71
2023-01-26T21:42:35.883Z,18.68
2023-01-26T21:45:02.470Z,18.65
2023-01-26T21:47:28.730Z,18.62
2023-01-26T21:49:54.956Z,18.63
2023-01-26T21:52:22.255Z,18.60
2023-01-26T21:54:48.473Z,18.59
2023-01-26T21:57:15.396Z,18.59
2023-01-26T21:59:41.650Z,18.56
2023-01-26T22:02:07.900Z,18.56
2023-01-26T22:04:34.138Z,18.54
2023-01-26T22:07:00.459Z,18.51
2023-01-26T22:09:27.551Z,18.51
2023-01-26T22:11:53.798Z,18.51
2023-01-26T22:14:20.406Z,18.51
2023-01-26T22:16:46.668Z,18.50
2023-01-26T22:19:13.135Z,18.46
2023-01-26T22:21:39.637Z,18.36
2023-01-26T22:24:06.039Z,18.19
2023-01-26T22:26:33.008Z,18.03
2023-01-26T22:28:59.276Z,17.84
2023-01-26T22:31:25.712Z,17.70
2023-01-26T22:33:52.537Z,17.55
2023-01-26T22:36:18.739Z,17.43
2023-01-26T22:38:44.927Z,17.32
2023-01-26T22:41:11.357Z,17.19
2023-01-26T22:43:42.516Z,17.08
2023-01-26T22:46:09.920Z,16.98
2023-01-26T22:48:36.708Z,16.87
2023-01-26T22:51:03.010Z,16.76
2023-01-26T22:53:29.233Z,16.67
2023-01-26T22:55:58.380Z,16.57
2023-01-26T22:58:24.579Z,16.49
2023-01-26T23:00:50.804Z,16.40
2023-01-26T23:03:17.004Z,16.32
2023-01-26T23:05:43.487Z,16.23
2023-01-26T23:08:09.671Z,16.14
2023-01-26T23:10:35.956Z,16.07
2023-01-26T23:13:03.410Z,15.99
2023-01-26T23:15:29.636Z,15.90
2023-01-26T23:17:55.843Z,15.83
2023-01-26T23:20:22.242Z,15.75
2023-01-26T23:22:48.483Z,15.70
2023-01-26T23:25:14.688Z,15.64
2023-01-26T23:27:40.957Z,15.57
2023-01-26T23:30:07.207Z,15.50
2023-01-26T23:32:33.417Z,15.44
2023-01-26T23:35:00.206Z,15.39
2023-01-26T23:37:27.214Z,15.33
2023-01-26T23:39:53.449Z,15.28
2023-01-26T23:42:20.033Z,15.23
2023-01-26T23:44:46.230Z,15.16
2023-01-26T23:47:12.484Z,15.12
2023-01-26T23:49:38.822Z,15.05
2023-01-26T23:52:06.282Z,15.01
2023-01-26T23:54:32.485Z,14.96
2023-01-26T23:56:59.035Z,14.91
2023-01-26T23:59:26.152Z,14.87
